Denhoff, North Dakota
Current Conditions -  °F | °C
As of 7:15 PM on Monday 20 Oct 2014 (Local Time) from K5H4 Reporting Station
Clear Clear  
Wind Chill: 59°   Ceiling: Unl
Heat Index: 59°   Visibility: 10mi
Dew Point: 32°   Wind: 6mph
Humidity: 36%   Direction: 150°SSE
Pressure: 29.96"   Gusts: NA
Location:  47.48°N, 100.26°W
Report Text: K5H4 210015Z AUTO 15005KT 10SM CLR 15/00 A2996 RMK AO2
Loading
Personal Weather Stations






























Interactive Weather Map
Tropical Storm Tracking
New forecast layout! Learn more

10-Day Weather Forecast

Advertisements
Track Severe Weather on mobile